Time;durP1;ratioP1;P1;durP2;ratioP2;P2;SDS_P1;SDS_P2;PMS_P1;PMS_P2;Temp;Humidity;BMP_temperature;BMP_pressure;BME280_temperature;BME280_humidity;BME280_pressure;Samples;Min_cycle;Max_cycle;Signal;HPM_P1;HPM_P2
2022/05/03 00:00:14;;;;;;;10.43;7.30;;;;;;;10.36;72.57;95212.66;5045434;28;20036;-75
2022/05/03 00:02:49;;;;;;;12.55;6.93;;;;;;;10.32;72.33;95214.00;5044999;28;20029;-74
2022/05/03 00:05:29;;;;;;;9.43;7.00;;;;;;;10.16;73.04;95212.31;5044390;28;20024;-76
2022/05/03 00:08:07;;;;;;;8.27;5.72;;;;;;;10.10;70.70;95211.19;5027964;28;20028;-77
2022/05/03 00:10:50;;;;;;;6.05;5.22;;;;;;;10.12;70.11;95218.00;5026913;28;20103;-76
2022/05/03 00:13:18;;;;;;;10.43;5.43;;;;;;;10.15;69.28;95211.47;5043882;28;20958;-75
2022/05/03 00:15:43;;;;;;;7.65;4.35;;;;;;;10.14;67.84;95215.16;5026711;28;20532;-73
2022/05/03 00:18:09;;;;;;;6.72;4.82;;;;;;;9.91;68.15;95207.13;5044141;28;20420;-74
2022/05/03 00:20:35;;;;;;;6.75;4.50;;;;;;;9.83;68.62;95208.88;5044683;28;20108;-74
2022/05/03 00:23:01;;;;;;;7.47;4.70;;;;;;;9.83;68.95;95194.63;5027178;28;20028;-74
2022/05/03 00:25:28;;;;;;;6.40;4.97;;;;;;;9.85;68.62;95197.97;5027118;28;20025;-74
2022/05/03 00:27:53;;;;;;;6.93;4.93;;;;;;;9.75;69.88;95206.25;5027160;28;20060;-74
2022/05/03 00:30:18;;;;;;;6.80;4.55;;;;;;;9.80;69.37;95203.03;5043499;28;20029;-77
2022/05/03 00:32:44;;;;;;;5.45;4.43;;;;;;;9.81;69.08;95204.69;5043207;28;20021;-74
2022/05/03 00:35:10;;;;;;;6.07;4.15;;;;;;;9.83;69.05;95200.84;5027104;28;20776;-76
2022/05/03 00:37:36;;;;;;;6.90;4.43;;;;;;;9.70;68.72;95209.44;5026422;28;20529;-74
2022/05/03 00:40:02;;;;;;;5.60;4.43;;;;;;;9.59;69.92;95209.84;5045428;28;20017;-76
2022/05/03 00:42:56;;;;;;;5.53;4.47;;;;;;;9.62;69.63;95206.81;5043594;28;20086;-75
2022/05/03 00:45:40;;;;;;;6.05;4.32;;;;;;;9.60;69.54;95211.50;5029481;28;20045;-74
2022/05/03 00:48:31;;;;;;;7.55;4.70;;;;;;;9.50;70.00;95209.03;5043335;28;20525;-74
2022/05/03 00:51:10;;;;;;;6.85;4.35;;;;;;;9.46;70.15;95202.38;5044486;28;20075;-73
2022/05/03 00:54:10;;;;;;;9.57;4.60;;;;;;;9.49;69.86;95210.91;5063012;28;20557;-78
2022/05/03 00:56:39;;;;;;;7.90;4.60;;;;;;;9.53;70.21;95203.34;5031315;28;20408;-72
2022/05/03 00:59:28;;;;;;;7.72;4.72;;;;;;;9.54;70.16;95205.03;5029951;28;20456;-74
2022/05/03 01:02:06;;;;;;;8.90;4.90;;;;;;;9.51;70.41;95203.50;5064182;28;20063;-75
2022/05/03 01:04:46;;;;;;;6.90;4.57;;;;;;;9.49;70.08;95202.88;5046789;28;20552;-75
2022/05/03 01:07:31;;;;;;;9.35;5.00;;;;;;;9.56;70.08;95202.19;5046292;28;20089;-76
2022/05/03 01:10:22;;;;;;;6.60;4.57;;;;;;;9.54;70.01;95199.69;5046968;28;20028;-74
2022/05/03 01:13:01;;;;;;;9.50;4.68;;;;;;;9.20;71.23;95193.66;5046321;28;20125;-76
2022/05/03 01:15:30;;;;;;;6.28;4.30;;;;;;;9.26;70.90;95192.94;5049972;28;20021;-73
2022/05/03 01:18:08;;;;;;;8.73;4.68;;;;;;;9.34;71.36;95196.59;5033986;28;20553;-75
2022/05/03 01:20:51;;;;;;;5.55;4.28;;;;;;;9.37;70.79;95199.75;5068214;28;20529;-74
2022/05/03 01:23:44;;;;;;;6.28;4.70;;;;;;;9.41;71.30;95194.88;5050727;28;20040;-77
2022/05/03 01:26:31;;;;;;;5.30;4.25;;;;;;;9.45;71.22;95196.19;5050230;28;20032;-75
2022/05/03 01:29:47;;;;;;;5.57;4.78;;;;;;;9.43;70.75;95192.84;5067830;28;20029;-75
2022/05/03 01:32:13;;;;;;;5.75;4.00;;;;;;;9.40;70.77;95194.03;5012732;28;20124;-75
2022/05/03 01:34:38;;;;;;;6.75;4.22;;;;;;;9.43;70.50;95194.72;5050247;28;20028;-73
2022/05/03 01:37:18;;;;;;;7.38;4.50;;;;;;;9.44;71.08;95188.34;5033112;28;20024;-73
2022/05/03 01:39:47;;;;;;;8.15;4.60;;;;;;;9.32;72.14;95188.72;5051795;28;20497;-73
2022/05/03 01:42:40;;;;;;;5.65;4.70;;;;;;;9.25;72.15;95180.56;5067630;28;20024;-73
2022/05/03 01:45:09;;;;;;;5.75;4.13;;;;;;;9.31;71.88;95184.41;5067773;28;20082;-72
2022/05/03 01:48:05;;;;;;;6.30;4.38;;;;;;;9.28;72.02;95174.84;5050668;28;20032;-73
2022/05/03 01:50:42;;;;;;;8.35;4.55;;;;;;;9.33;71.81;95178.88;5051142;28;20067;-75
2022/05/03 01:53:10;;;;;;;6.97;4.65;;;;;;;9.37;72.00;95175.66;5049698;28;20040;-74
2022/05/03 01:55:47;;;;;;;5.78;4.00;;;;;;;9.32;71.83;95169.19;5049737;28;20044;-74
2022/05/03 01:58:29;;;;;;;5.45;4.22;;;;;;;9.32;72.02;95175.34;5067952;28;20048;-74
2022/05/03 02:01:04;;;;;;;5.72;4.18;;;;;;;9.33;72.33;95179.72;5049458;28;20028;-74
2022/05/03 02:03:34;;;;;;;7.63;4.47;;;;;;;9.29;72.68;95175.69;5067309;28;20028;-73
2022/05/03 02:06:08;;;;;;;6.47;4.20;;;;;;;9.28;72.25;95180.22;5033267;28;20028;-74
2022/05/03 02:08:55;;;;;;;6.82;4.55;;;;;;;9.37;72.14;95172.16;5033421;28;20467;-76
2022/05/03 02:11:39;;;;;;;6.38;5.07;;;;;;;9.37;72.06;95175.66;5049599;28;20036;-75
2022/05/03 02:17:05;;;;;;;6.82;4.25;;;;;;;9.37;72.16;95174.81;5038207;28;20461;-73
2022/05/03 02:20:02;;;;;;;5.80;4.90;;;;;;;9.33;72.77;95174.34;5067682;28;20123;-75
2022/05/03 02:22:48;;;;;;;6.88;5.55;;;;;;;9.35;73.53;95175.00;5067248;28;20408;-75
2022/05/03 02:25:53;;;;;;;10.95;5.68;;;;;;;9.33;73.66;95176.19;5066810;28;20032;-75
2022/05/03 02:28:43;;;;;;;10.13;5.53;;;;;;;9.28;73.81;95174.84;5055722;28;20043;-75
2022/05/03 02:31:12;;;;;;;8.95;6.35;;;;;;;9.33;73.95;95169.00;5048153;28;20491;-74
2022/05/03 02:33:43;;;;;;;9.63;5.93;;;;;;;9.37;73.99;95174.81;5016437;28;20115;-76
2022/05/03 02:36:16;;;;;;;7.47;6.13;;;;;;;9.40;73.84;95169.97;5048829;28;20089;-74
2022/05/03 02:39:04;;;;;;;10.07;5.90;;;;;;;9.39;73.98;95164.78;5049504;28;20545;-75
2022/05/03 02:41:32;;;;;;;8.10;6.30;;;;;;;9.43;73.90;95171.44;5066935;28;20036;-75
2022/05/03 02:43:57;;;;;;;8.60;6.30;;;;;;;9.45;74.22;95168.59;5015961;28;20113;-74
2022/05/03 02:46:35;;;;;;;9.55;6.40;;;;;;;9.37;74.46;95172.97;5032033;28;20021;-74
2022/05/03 02:49:04;;;;;;;9.88;6.50;;;;;;;9.34;75.04;95167.16;5048729;28;20500;-74
2022/05/03 02:51:57;;;;;;;10.38;6.53;;;;;;;9.41;74.38;95162.78;5031427;28;20526;-75
2022/05/03 02:55:00;;;;;;;9.45;6.82;;;;;;;9.40;74.85;95163.75;5048670;28;20036;-74
2022/05/03 02:57:59;;;;;;;8.25;6.53;;;;;;;9.40;74.92;95163.75;5048413;28;20037;-75
2022/05/03 03:03:44;;;;;;;10.82;7.40;;;;;;;9.29;75.33;95165.00;5037549;28;20407;-75
2022/05/03 03:06:22;;;;;;;10.77;7.45;;;;;;;9.35;75.34;95164.28;5035537;28;20059;-75
2022/05/03 03:08:48;;;;;;;9.30;6.75;;;;;;;9.33;75.27;95165.47;5016687;28;20079;-76
2022/05/03 03:11:46;;;;;;;8.30;6.50;;;;;;;9.37;75.00;95162.28;5031960;28;20111;-75
2022/05/03 03:14:20;;;;;;;8.93;6.43;;;;;;;9.43;74.35;95165.28;5047704;28;20056;-77
2022/05/03 03:17:00;;;;;;;8.63;6.38;;;;;;;9.41;74.42;95162.78;5031584;28;20041;-75
2022/05/03 03:19:37;;;;;;;9.32;6.63;;;;;;;9.40;74.56;95166.44;5032231;28;20035;-74
2022/05/03 03:22:03;;;;;;;7.90;6.30;;;;;;;9.42;74.45;95169.78;5048023;28;20116;-75
2022/05/03 03:24:31;;;;;;;9.60;7.07;;;;;;;9.38;74.68;95168.47;5015256;28;20113;-76
2022/05/03 03:27:00;;;;;;;8.18;6.72;;;;;;;9.43;74.53;95171.44;5031900;28;20024;-74
2022/05/03 03:29:25;;;;;;;8.60;6.30;;;;;;;9.25;75.11;95164.50;5015285;28;20081;-75
2022/05/03 03:31:51;;;;;;;16.20;7.20;;;;;;;9.32;75.13;95166.50;5031047;28;20020;-79
2022/05/03 03:34:20;;;;;;;15.45;7.43;;;;;;;9.35;75.10;95166.97;5030446;28;20438;-78
2022/05/03 03:36:47;;;;;;;11.90;7.10;;;;;;;9.38;75.08;95171.16;5032065;28;20025;-74
2022/05/03 03:39:13;;;;;;;11.75;7.55;;;;;;;9.37;75.37;95170.31;5030868;28;20111;-74
2022/05/03 03:41:38;;;;;;;11.95;7.70;;;;;;;9.30;75.64;95166.69;5047776;28;20020;-75
2022/05/03 03:44:05;;;;;;;11.05;7.90;;;;;;;9.36;75.54;95167.81;5031113;28;20453;-75
2022/05/03 03:46:32;;;;;;;10.48;7.60;;;;;;;9.38;75.22;95177.31;5048054;28;20119;-75
2022/05/03 03:48:57;;;;;;;9.80;6.88;;;;;;;9.44;75.33;95177.63;5047724;28;20028;-76
2022/05/03 03:51:23;;;;;;;10.32;7.60;;;;;;;9.35;75.35;95177.69;5030470;28;20028;-75
2022/05/03 03:53:48;;;;;;;10.13;7.53;;;;;;;9.33;75.56;95176.19;5030980;28;20024;-75
2022/05/03 03:56:14;;;;;;;10.50;7.18;;;;;;;9.40;75.63;95171.78;5014307;28;20032;-75
2022/05/03 03:58:39;;;;;;;8.18;6.80;;;;;;;9.40;75.54;95171.78;5030817;28;20024;-76
2022/05/03 04:01:05;;;;;;;13.98;7.88;;;;;;;9.39;76.10;95183.50;5047565;28;20024;-75
2022/05/03 04:03:31;;;;;;;9.75;7.05;;;;;;;9.47;75.33;95175.44;5047443;28;20031;-75
2022/05/03 04:05:56;;;;;;;10.55;8.20;;;;;;;9.31;75.87;95178.19;5014610;28;20052;-74
2022/05/03 04:08:22;;;;;;;10.48;7.85;;;;;;;9.32;76.38;95179.88;5064973;28;20078;-75
2022/05/03 04:10:49;;;;;;;10.85;7.43;;;;;;;9.45;75.98;95188.16;5064596;28;20025;-75
2022/05/03 04:13:14;;;;;;;10.05;7.75;;;;;;;9.46;75.46;95183.66;5064947;28;20407;-75
2022/05/03 04:15:40;;;;;;;10.27;7.63;;;;;;;9.49;75.80;95180.63;5046843;28;20029;-74
2022/05/03 04:18:08;;;;;;;9.50;7.32;;;;;;;9.57;75.50;95193.97;5013794;28;20036;-73
2022/05/03 04:20:34;;;;;;;11.48;7.75;;;;;;;9.58;75.09;95184.06;5031364;28;20029;-76
2022/05/03 04:22:59;;;;;;;11.00;7.18;;;;;;;9.67;74.65;95185.72;5047092;28;20106;-75
2022/05/03 04:25:25;;;;;;;12.65;7.60;;;;;;;9.70;75.08;95188.03;5030626;28;20064;-74
2022/05/03 04:27:50;;;;;;;9.95;7.18;;;;;;;9.73;74.63;95192.19;5064660;28;20513;-75
2022/05/03 04:30:16;;;;;;;9.07;7.20;;;;;;;9.68;74.44;95192.72;5064573;28;20028;-74
2022/05/03 04:32:41;;;;;;;9.43;6.55;;;;;;;9.77;74.51;95190.81;5064485;28;20025;-74
2022/05/03 04:35:07;;;;;;;8.85;6.78;;;;;;;9.78;73.37;95195.16;5064953;28;20036;-75
2022/05/03 04:37:32;;;;;;;8.90;6.55;;;;;;;9.84;73.37;95188.25;5046918;28;20021;-76
2022/05/03 04:39:58;;;;;;;9.32;7.22;;;;;;;9.90;73.46;95187.53;5046431;28;20025;-75
2022/05/03 04:42:23;;;;;;;9.88;7.30;;;;;;;9.88;74.03;95189.59;5030544;28;20028;-74
2022/05/03 04:44:49;;;;;;;11.60;6.60;;;;;;;9.98;73.12;95183.97;5064566;28;20028;-74
2022/05/03 04:47:14;;;;;;;9.63;6.57;;;;;;;10.05;72.36;95194.78;5064357;28;20033;-76
2022/05/03 04:49:40;;;;;;;8.43;7.07;;;;;;;9.97;71.94;95187.66;5045637;28;20644;-75
2022/05/03 04:52:05;;;;;;;8.20;6.95;;;;;;;9.94;72.59;95188.88;5029459;28;20055;-74
2022/05/03 04:54:31;;;;;;;9.20;6.97;;;;;;;9.97;72.33;95188.50;5046565;28;20083;-75
2022/05/03 04:57:03;;;;;;;8.98;7.00;;;;;;;10.02;71.27;95187.97;5029574;28;20028;-75
2022/05/03 04:59:29;;;;;;;;;;;;;;;10.14;70.90;95196.38;5031080;28;20021;-74
2022/05/03 05:01:54;;;;;;;7.78;6.47;;;;;;;10.14;71.02;95189.19;5046039;28;19935;-75
2022/05/03 05:04:20;;;;;;;10.40;6.60;;;;;;;10.19;70.42;95190.53;5030229;28;20029;-75
2022/05/03 05:06:45;;;;;;;7.55;6.07;;;;;;;10.25;69.31;95200.50;5046461;28;20055;-75
2022/05/03 05:09:11;;;;;;;8.63;6.03;;;;;;;10.19;69.21;95195.88;5046489;28;20012;-76
2022/05/03 05:11:36;;;;;;;8.68;6.15;;;;;;;10.24;68.26;95194.31;5046401;28;20028;-75
2022/05/03 05:14:01;;;;;;;9.32;6.45;;;;;;;10.28;68.68;95194.78;5064238;28;20039;-75
2022/05/03 05:16:27;;;;;;;9.68;6.68;;;;;;;10.25;69.82;95204.00;5064598;28;20411;-73
2022/05/03 05:18:52;;;;;;;10.27;6.43;;;;;;;10.20;68.98;95198.38;5064136;28;20418;-74
2022/05/03 05:21:18;;;;;;;9.02;5.97;;;;;;;10.29;67.48;95203.63;5030134;28;20472;-75
2022/05/03 05:23:43;;;;;;;7.85;5.88;;;;;;;10.16;67.11;95202.41;5064351;28;20490;-75
2022/05/03 05:26:09;;;;;;;7.05;5.35;;;;;;;10.09;65.40;95196.94;5064090;28;20028;-74
2022/05/03 05:28:34;;;;;;;8.45;5.00;;;;;;;10.08;64.29;95194.44;5029349;28;20052;-74
2022/05/03 05:30:59;;;;;;;8.95;4.60;;;;;;;10.08;65.43;95199.78;5063844;28;20450;-74
2022/05/03 05:33:25;;;;;;;7.35;4.95;;;;;;;10.08;64.46;95199.78;5046232;28;20431;-74
2022/05/03 05:35:51;;;;;;;5.00;3.97;;;;;;;10.17;63.73;95200.56;5013153;28;20024;-74
2022/05/03 05:38:17;;;;;;;7.07;4.53;;;;;;;10.32;63.50;95200.59;5046499;28;20547;-74
2022/05/03 05:40:43;;;;;;;8.88;5.38;;;;;;;10.48;64.60;95202.31;5046408;28;20096;-74
2022/05/03 05:43:08;;;;;;;8.43;5.40;;;;;;;10.71;63.24;95201.44;5046344;28;20035;-74
2022/05/03 05:45:34;;;;;;;6.80;5.30;;;;;;;11.04;63.84;95211.84;5064108;28;20032;-74
2022/05/03 05:47:59;;;;;;;7.07;5.30;;;;;;;11.23;62.75;95210.44;5045688;28;20492;-74
2022/05/03 05:50:25;;;;;;;7.32;5.07;;;;;;;11.35;62.39;95215.31;5063828;28;20043;-75
2022/05/03 05:55:36;;;;;;;7.53;5.03;;;;;;;11.80;60.24;95225.97;5049511;28;20071;-75
2022/05/03 05:58:04;;;;;;;6.18;4.65;;;;;;;11.79;60.96;95228.84;5013364;28;20404;-75
2022/05/03 06:00:31;;;;;;;6.97;4.05;;;;;;;12.03;57.59;95219.59;5064510;28;20193;-74
2022/05/03 06:02:57;;;;;;;7.13;4.05;;;;;;;12.00;58.99;95228.03;5049664;28;20102;-75
2022/05/03 06:05:23;;;;;;;9.10;4.60;;;;;;;12.28;57.07;95221.94;5049202;28;20032;-75
2022/05/03 06:07:48;;;;;;;7.70;4.38;;;;;;;12.58;55.27;95221.78;5067553;28;20040;-75
2022/05/03 06:10:13;;;;;;;5.72;3.42;;;;;;;12.73;54.62;95220.84;5049396;28;20392;-75
2022/05/03 06:12:39;;;;;;;6.88;3.75;;;;;;;12.86;53.65;95226.31;5067928;28;20395;-74
2022/05/03 06:15:05;;;;;;;6.20;3.60;;;;;;;12.47;52.96;95231.19;5067068;28;20021;-77
2022/05/03 06:17:30;;;;;;;4.63;3.35;;;;;;;12.12;54.09;95239.16;5049562;28;20107;-74
2022/05/03 06:19:56;;;;;;;4.72;2.78;;;;;;;12.04;54.81;95240.06;5049384;28;20458;-77
2022/05/03 06:22:21;;;;;;;6.65;3.40;;;;;;;11.75;55.63;95239.97;5049090;28;20471;-74
2022/05/03 06:24:47;;;;;;;6.60;3.22;;;;;;;11.79;55.68;95243.13;5049232;28;20031;-74
2022/05/03 06:27:14;;;;;;;5.32;4.18;;;;;;;11.70;56.56;95245.06;5066773;28;20029;-73
2022/05/03 06:29:39;;;;;;;7.55;4.68;;;;;;;11.75;57.89;95241.84;5016162;28;20029;-74
2022/05/03 06:32:05;;;;;;;7.68;4.22;;;;;;;11.77;59.03;95238.97;5048987;28;20021;-75
2022/05/03 06:34:31;;;;;;;4.32;3.40;;;;;;;11.80;58.85;95239.38;5049032;28;20039;-74
2022/05/03 06:36:56;;;;;;;6.22;4.00;;;;;;;11.84;57.78;95243.38;5049091;28;20025;-74
2022/05/03 06:39:22;;;;;;;7.20;3.83;;;;;;;11.95;58.38;95247.41;5048796;28;20427;-74
2022/05/03 06:41:47;;;;;;;5.75;3.80;;;;;;;11.98;58.34;95249.72;5048901;28;20499;-74
2022/05/03 06:44:13;;;;;;;6.68;3.58;;;;;;;12.00;57.76;95249.53;5048577;28;20032;-74
2022/05/03 06:46:39;;;;;;;5.85;4.13;;;;;;;12.05;57.29;95246.28;5066597;28;20040;-73
2022/05/03 06:49:04;;;;;;;7.75;3.97;;;;;;;12.02;57.46;95258.25;5032160;28;20515;-75
2022/05/03 06:51:30;;;;;;;5.70;3.60;;;;;;;11.84;56.96;95259.50;5015233;28;20499;-75
2022/05/03 06:53:56;;;;;;;5.82;3.67;;;;;;;11.72;58.59;95259.16;5066644;28;20032;-74
2022/05/03 06:56:21;;;;;;;5.30;3.28;;;;;;;11.58;57.98;95262.69;5066732;28;20025;-75
2022/05/03 06:58:47;;;;;;;5.85;3.35;;;;;;;11.61;58.30;95262.31;5032056;28;20110;-74
2022/05/03 07:01:14;;;;;;;7.63;3.90;;;;;;;11.42;57.44;95264.56;5048512;28;20557;-76
2022/05/03 07:03:40;;;;;;;7.15;3.55;;;;;;;11.47;58.12;95272.06;5066238;28;20066;-74
2022/05/03 07:06:05;;;;;;;6.22;3.13;;;;;;;11.48;57.88;95274.56;5031774;28;20024;-74
2022/05/03 07:08:31;;;;;;;7.53;3.50;;;;;;;11.38;57.01;95265.97;5047990;28;20120;-75
2022/05/03 07:10:56;;;;;;;6.05;3.60;;;;;;;11.29;57.33;95269.75;5015293;28;20104;-75
2022/05/03 07:13:25;;;;;;;5.68;3.42;;;;;;;11.36;57.09;95268.00;5065710;28;20025;-75
2022/05/03 07:15:54;;;;;;;8.98;3.53;;;;;;;11.46;57.15;95276.59;5048581;28;20048;-73
2022/05/03 07:23:48;;;;;;;5.00;2.90;;;;;;;11.31;55.54;95265.88;5066434;28;20028;-75
2022/05/03 07:26:13;;;;;;;4.68;3.00;;;;;;;11.36;56.20;95262.63;5066215;28;20024;-74
2022/05/03 07:28:39;;;;;;;7.45;3.55;;;;;;;11.47;56.07;95270.22;5014516;28;20036;-74
2022/05/03 07:31:04;;;;;;;4.07;3.33;;;;;;;11.55;56.12;95261.22;5048196;28;20036;-75
2022/05/03 07:33:30;;;;;;;4.82;3.20;;;;;;;11.54;56.28;95264.09;5031110;28;20020;-74
2022/05/03 07:35:55;;;;;;;5.47;3.00;;;;;;;11.53;56.23;95265.09;5047857;28;20082;-75
2022/05/03 07:38:20;;;;;;;7.18;3.40;;;;;;;11.53;56.90;95268.63;5065671;28;20069;-75
2022/05/03 07:40:46;;;;;;;5.35;3.63;;;;;;;11.53;57.25;95275.84;5065339;28;20079;-74
2022/05/03 07:43:11;;;;;;;4.97;3.00;;;;;;;11.73;56.27;95274.28;5047927;28;20074;-74
2022/05/03 07:45:37;;;;;;;4.18;2.97;;;;;;;11.68;55.52;95270.47;5065159;28;20089;-75
2022/05/03 07:48:04;;;;;;;4.50;2.90;;;;;;;11.68;54.94;95279.38;5047911;28;20090;-74
2022/05/03 07:50:29;;;;;;;5.57;2.92;;;;;;;11.80;54.60;95282.38;5065497;28;20099;-76
2022/05/03 07:52:55;;;;;;;4.70;2.75;;;;;;;11.83;55.16;95282.00;5065549;28;20032;-73
2022/05/03 07:55:20;;;;;;;6.57;3.05;;;;;;;11.86;54.95;95280.81;5065666;28;20025;-74
2022/05/03 07:57:46;;;;;;;3.65;2.58;;;;;;;11.76;55.25;95270.34;5065162;28;20032;-74
2022/05/03 08:00:12;;;;;;;3.63;2.67;;;;;;;11.70;55.55;95279.19;5047290;28;20465;-74
2022/05/03 08:02:37;;;;;;;6.38;2.70;;;;;;;11.67;55.62;95276.88;5046916;28;20048;-77
2022/05/03 08:05:03;;;;;;;4.70;2.60;;;;;;;11.63;56.05;95279.09;5047404;28;20497;-74
2022/05/03 08:07:29;;;;;;;6.22;2.70;;;;;;;11.51;56.16;95284.09;5047231;28;20028;-74
2022/05/03 08:09:54;;;;;;;5.10;2.55;;;;;;;11.47;55.54;95299.75;5065358;28;20025;-73
2022/05/03 08:12:20;;;;;;;2.92;2.45;;;;;;;11.39;55.61;95289.13;5047252;28;20099;-74
2022/05/03 08:14:46;;;;;;;3.33;2.50;;;;;;;11.27;56.32;95293.28;5046941;28;20036;-73
2022/05/03 08:17:11;;;;;;;5.85;2.40;;;;;;;11.24;56.48;95300.69;5065068;28;20028;-74
2022/05/03 08:19:38;;;;;;;4.60;2.38;;;;;;;11.20;55.93;95294.03;5030543;28;20036;-74
2022/05/03 08:22:04;;;;;;;5.20;2.83;;;;;;;11.07;56.99;95293.81;5030331;28;20021;-74
2022/05/03 08:24:30;;;;;;;4.60;2.30;;;;;;;11.05;57.27;95299.38;5046041;28;20035;-74
2022/05/03 08:26:55;;;;;;;8.43;2.47;;;;;;;11.10;57.55;95306.88;5064842;28;20499;-74
2022/05/03 08:29:21;;;;;;;3.92;2.30;;;;;;;11.08;57.01;95306.22;5030235;28;20028;-74
2022/05/03 08:31:46;;;;;;;2.75;2.15;;;;;;;11.06;57.11;95319.00;5046910;28;20020;-74
2022/05/03 08:34:12;;;;;;;4.40;2.40;;;;;;;11.00;57.47;95321.41;5046902;28;20506;-75
2022/05/03 08:36:37;;;;;;;3.92;2.53;;;;;;;10.94;57.42;95322.13;5064729;28;20086;-74
2022/05/03 08:42:01;;;;;;;4.15;2.38;;;;;;;10.91;57.40;95332.38;5064461;28;20044;-74
2022/05/03 08:44:28;;;;;;;3.80;2.28;;;;;;;10.97;56.95;95321.75;5049391;28;20099;-74
2022/05/03 08:46:55;;;;;;;5.50;2.75;;;;;;;10.99;57.21;95335.81;5030146;28;20032;-73
2022/05/03 08:49:22;;;;;;;4.03;2.47;;;;;;;11.09;56.86;95330.19;5030709;28;20035;-74
2022/05/03 08:51:49;;;;;;;4.30;2.10;;;;;;;10.99;56.28;95325.06;5029610;28;20051;-75
2022/05/03 08:54:15;;;;;;;3.22;2.40;;;;;;;11.16;57.18;95322.25;5030078;28;20491;-74
2022/05/03 08:56:41;;;;;;;3.33;2.33;;;;;;;11.27;56.70;95325.50;5064536;28;20427;-74
2022/05/03 08:59:07;;;;;;;4.80;2.50;;;;;;;11.44;56.90;95328.84;5029755;28;20024;-73
2022/05/03 09:01:32;;;;;;;4.13;2.30;;;;;;;11.54;55.40;95332.09;5030326;28;20054;-75
2022/05/03 09:03:58;;;;;;;4.40;2.30;;;;;;;11.59;54.65;95328.84;5064379;28;20028;-75
2022/05/03 09:06:46;;;;;;;3.42;2.28;;;;;;;11.67;54.87;95325.22;5046659;28;20043;-75
2022/05/03 09:09:15;;;;;;;5.10;2.67;;;;;;;11.83;55.64;95334.94;5046359;28;20048;-73
2022/05/03 09:11:57;;;;;;;4.35;2.50;;;;;;;11.90;54.16;95335.03;5046699;28;20032;-75
2022/05/03 09:14:39;;;;;;;4.15;2.60;;;;;;;12.06;53.87;95333.97;5032366;28;20261;-75
2022/05/03 09:17:05;;;;;;;9.38;3.15;;;;;;;12.15;52.91;95332.88;5029855;28;20024;-75
2022/05/03 09:19:31;;;;;;;9.93;4.35;;;;;;;12.29;54.18;95331.16;5046693;28;20522;-75
2022/05/03 09:25:04;;;;;;;5.60;3.00;;;;;;;12.48;52.58;95328.84;5049462;28;20040;-75
2022/05/03 09:27:31;;;;;;;5.68;3.00;;;;;;;12.61;51.68;95325.47;5048674;28;20063;-75
2022/05/03 09:29:59;;;;;;;8.20;4.30;;;;;;;12.74;52.17;95324.75;5013228;28;20035;-75
2022/05/03 09:32:41;;;;;;;3.63;2.00;;;;;;;12.81;49.99;95322.13;5064358;28;20028;-74
2022/05/03 09:35:35;;;;;;;3.93;2.10;;;;;;;12.83;50.54;95318.19;5063941;28;20086;-75
2022/05/03 09:38:03;;;;;;;3.35;1.92;;;;;;;12.94;49.85;95316.88;5018398;28;20303;-74
2022/05/03 09:40:29;;;;;;;2.95;2.05;;;;;;;13.07;51.32;95318.00;5068260;28;20055;-73
2022/05/03 09:42:56;;;;;;;4.38;2.33;;;;;;;13.01;51.58;95310.69;5067932;28;20083;-75
2022/05/03 09:45:25;;;;;;;4.70;2.22;;;;;;;13.18;51.96;95298.59;5050201;28;20039;-74
2022/05/03 09:47:52;;;;;;;3.58;2.38;;;;;;;13.31;50.17;95299.72;5067842;28;20185;-74
2022/05/03 09:50:31;;;;;;;3.25;1.88;;;;;;;13.48;49.43;95309.13;5067442;28;20044;-75
2022/05/03 09:52:57;;;;;;;3.33;2.28;;;;;;;13.58;49.39;95303.44;5067485;28;20040;-75
2022/05/03 09:55:30;;;;;;;3.20;1.83;;;;;;;13.58;48.01;95295.34;5067340;28;20050;-74
2022/05/03 09:57:57;;;;;;;3.17;1.88;;;;;;;13.57;48.01;95298.25;5068275;28;20044;-74
2022/05/03 10:00:22;;;;;;;3.03;1.90;;;;;;;13.62;47.88;95294.94;5067351;28;20111;-74
2022/05/03 10:02:47;;;;;;;2.92;1.80;;;;;;;13.55;47.74;95300.28;5049785;28;20103;-73
2022/05/03 10:05:13;;;;;;;5.30;1.77;;;;;;;13.50;47.92;95302.72;5049404;28;20082;-74
2022/05/03 10:07:40;;;;;;;2.97;2.08;;;;;;;13.52;48.13;95303.38;5032698;28;20109;-74
2022/05/03 10:10:06;;;;;;;3.60;2.22;;;;;;;13.46;48.86;95297.72;5067339;28;20594;-74
2022/05/03 10:12:32;;;;;;;4.88;2.33;;;;;;;13.54;47.90;95304.84;5048883;28;20052;-74
2022/05/03 10:14:57;;;;;;;2.88;2.05;;;;;;;13.61;47.70;95296.78;5016565;28;20040;-73
2022/05/03 10:20:38;;;;;;;3.85;1.85;;;;;;;13.69;47.36;95287.72;5051997;28;20101;-75
2022/05/03 10:23:23;;;;;;;3.60;2.05;;;;;;;13.71;47.35;95286.50;5035995;28;20060;-75
2022/05/03 10:25:49;;;;;;;3.95;1.65;;;;;;;13.87;46.07;95279.09;5051999;28;20031;-74
2022/05/03 10:28:15;;;;;;;3.90;1.50;;;;;;;13.82;46.93;95287.78;5067225;28;20032;-75
2022/05/03 10:31:04;;;;;;;5.70;2.78;;;;;;;13.78;46.23;95280.28;5016038;28;20569;-73
2022/05/03 10:33:29;;;;;;;2.95;1.73;;;;;;;13.70;45.69;95274.03;5057037;28;20044;-76
2022/05/03 10:35:54;;;;;;;3.95;1.52;;;;;;;13.68;45.34;95281.50;5066918;28;20040;-74
2022/05/03 10:38:39;;;;;;;3.88;1.70;;;;;;;13.48;46.88;95284.06;5032042;28;20024;-75
2022/05/03 10:41:05;;;;;;;6.63;2.05;;;;;;;13.72;47.02;95280.06;5049225;28;20040;-74
2022/05/03 10:43:31;;;;;;;3.45;2.65;;;;;;;13.70;47.87;95284.00;5032374;28;20031;-74
2022/05/03 10:45:58;;;;;;;2.92;1.88;;;;;;;13.75;47.22;95273.44;5048829;28;20021;-74
2022/05/03 10:48:27;;;;;;;3.13;1.95;;;;;;;13.92;46.49;95271.22;5047651;28;20043;-74
2022/05/03 10:50:54;;;;;;;2.70;1.60;;;;;;;13.87;47.00;95271.00;5048535;28;20029;-73
2022/05/03 10:53:23;;;;;;;3.42;1.88;;;;;;;14.09;46.53;95271.69;5048229;28;20044;-75
2022/05/03 10:56:07;;;;;;;5.45;1.73;;;;;;;14.23;45.77;95278.97;5032578;28;20032;-74
2022/05/03 10:58:34;;;;;;;5.03;1.65;;;;;;;14.31;43.79;95273.41;5048614;28;20032;-75
2022/05/03 11:01:20;;;;;;;2.80;1.70;;;;;;;14.50;44.40;95277.16;5048989;28;20581;-77
2022/05/03 11:03:48;;;;;;;3.80;1.63;;;;;;;14.67;44.51;95274.91;5048235;28;20029;-74
2022/05/03 11:06:25;;;;;;;2.78;1.65;;;;;;;14.72;45.23;95274.28;5066373;28;20407;-75
2022/05/03 11:14:11;;;;;;;3.50;2.10;;;;;;;14.49;42.55;95270.13;5066547;28;20036;-75
2022/05/03 11:16:36;;;;;;;2.28;1.80;;;;;;;14.46;42.45;95262.44;5047792;28;20494;-75
2022/05/03 11:19:15;;;;;;;3.35;2.20;;;;;;;14.52;42.46;95258.06;5031485;28;20479;-74
2022/05/03 11:21:40;;;;;;;3.92;1.80;;;;;;;14.34;43.98;95262.19;5015514;28;20070;-75
2022/05/03 11:24:23;;;;;;;4.00;2.67;;;;;;;14.49;42.69;95255.78;5048396;28;20032;-74
2022/05/03 11:26:50;;;;;;;2.70;2.05;;;;;;;14.61;42.09;95259.53;5033370;28;20613;-76
2022/05/03 11:29:15;;;;;;;3.65;1.75;;;;;;;14.66;42.47;95269.69;5048158;28;20070;-74
2022/05/03 11:31:51;;;;;;;3.10;1.88;;;;;;;14.66;42.31;95259.75;5065558;28;20434;-73
2022/05/03 11:34:17;;;;;;;7.95;2.30;;;;;;;14.67;42.91;95252.50;5031588;28;20419;-74
2022/05/03 11:36:43;;;;;;;4.07;2.00;;;;;;;14.73;43.62;95253.50;5031259;28;20115;-74
2022/05/03 11:39:09;;;;;;;4.00;1.98;;;;;;;14.81;42.96;95258.75;5031012;28;20028;-74
2022/05/03 11:41:35;;;;;;;3.47;1.80;;;;;;;14.94;42.51;95260.59;5047971;28;20056;-74
2022/05/03 11:44:01;;;;;;;3.35;1.90;;;;;;;14.87;42.71;95268.72;5031114;28;20024;-74
2022/05/03 11:46:26;;;;;;;3.05;1.75;;;;;;;14.92;41.91;95260.81;5047748;28;20051;-76
2022/05/03 11:48:53;;;;;;;5.15;1.73;;;;;;;14.74;42.49;95257.88;5047350;28;20503;-74
2022/05/03 11:56:55;;;;;;;3.20;1.80;;;;;;;14.68;42.80;95252.28;5050119;28;20123;-77
2022/05/03 11:59:20;;;;;;;2.75;1.73;;;;;;;14.71;42.23;95248.31;5031022;28;20069;-74
2022/05/03 12:01:47;;;;;;;3.55;1.38;;;;;;;14.82;42.28;95247.72;5047258;28;20028;-76
2022/05/03 12:04:12;;;;;;;4.43;1.75;;;;;;;14.91;42.42;95255.63;5031128;28;20415;-75
2022/05/03 12:06:44;;;;;;;2.38;1.20;;;;;;;15.00;41.11;95248.97;5065014;28;20029;-74
2022/05/03 12:09:20;;;;;;;2.45;1.23;;;;;;;14.68;41.56;95244.19;5065262;28;20020;-77
2022/05/03 12:14:37;;;;;;;2.65;1.60;;;;;;;14.85;42.24;95248.38;5036754;28;20106;-75
2022/05/03 12:17:03;;;;;;;2.92;1.65;;;;;;;15.01;42.87;95249.81;5046956;28;20479;-73
2022/05/03 12:19:33;;;;;;;2.90;1.50;;;;;;;15.09;42.37;95252.25;5065407;28;20031;-73
2022/05/03 12:22:15;;;;;;;6.70;3.55;;;;;;;14.88;42.96;95248.75;5046778;28;20029;-75
2022/05/03 12:24:43;;;;;;;4.20;1.50;;;;;;;14.90;42.70;95257.47;5047377;28;20107;-75
2022/05/03 12:27:12;;;;;;;2.78;1.40;;;;;;;14.60;43.25;95255.19;5014196;28;20127;-74